sensor_id;sensor_type;location;lat;lon;timestamp;pressure;altitude;pressure_sealevel;temperature;humidity
3150;BME280;32503;47.748;8.960;2023-02-28T00:01:14;97222.69;;;1.25;55.75
3150;BME280;32503;47.748;8.960;2023-02-28T00:03:41;97266.59;;;1.32;55.82
3150;BME280;32503;47.748;8.960;2023-02-28T00:06:09;97250.28;;;1.34;55.85
3150;BME280;32503;47.748;8.960;2023-02-28T00:08:37;97259.03;;;1.40;55.62
3150;BME280;32503;47.748;8.960;2023-02-28T00:11:07;97254.56;;;1.35;55.77
3150;BME280;32503;47.748;8.960;2023-02-28T00:13:37;97258.66;;;1.46;55.52
3150;BME280;32503;47.748;8.960;2023-02-28T00:16:09;97253.88;;;1.48;55.24
3150;BME280;32503;47.748;8.960;2023-02-28T00:18:36;97257.22;;;1.35;55.49
3150;BME280;32503;47.748;8.960;2023-02-28T00:21:04;97248.22;;;1.31;55.78
3150;BME280;32503;47.748;8.960;2023-02-28T00:23:32;97250.81;;;1.36;55.81
3150;BME280;32503;47.748;8.960;2023-02-28T00:25:59;97251.03;;;1.40;55.82
3150;BME280;32503;47.748;8.960;2023-02-28T00:28:26;97247.72;;;1.48;55.43
3150;BME280;32503;47.748;8.960;2023-02-28T00:30:53;97244.22;;;1.52;55.57
3150;BME280;32503;47.748;8.960;2023-02-28T00:33:22;97242.63;;;1.51;55.62
3150;BME280;32503;47.748;8.960;2023-02-28T00:35:49;97245.44;;;1.60;55.22
3150;BME280;32503;47.748;8.960;2023-02-28T00:38:16;97238.88;;;1.52;55.71
3150;BME280;32503;47.748;8.960;2023-02-28T00:40:43;97233.00;;;1.56;55.73
3150;BME280;32503;47.748;8.960;2023-02-28T00:43:10;97236.38;;;1.61;55.21
3150;BME280;32503;47.748;8.960;2023-02-28T00:45:37;97240.50;;;1.54;55.07
3150;BME280;32503;47.748;8.960;2023-02-28T00:48:05;97228.41;;;1.37;55.70
3150;BME280;32503;47.748;8.960;2023-02-28T00:50:33;97232.63;;;1.43;55.32
3150;BME280;32503;47.748;8.960;2023-02-28T00:53:00;97236.28;;;1.47;54.95
3150;BME280;32503;47.748;8.960;2023-02-28T00:55:27;97210.63;;;1.32;55.40
3150;BME280;32503;47.748;8.960;2023-02-28T00:57:54;97231.19;;;1.51;55.59
3150;BME280;32503;47.748;8.960;2023-02-28T01:00:21;97226.69;;;1.46;55.65
3150;BME280;32503;47.748;8.960;2023-02-28T01:02:48;97221.47;;;1.41;55.32
3150;BME280;32503;47.748;8.960;2023-02-28T01:05:16;97220.50;;;1.08;56.45
3150;BME280;32503;47.748;8.960;2023-02-28T01:07:44;97228.03;;;1.25;56.18
3150;BME280;32503;47.748;8.960;2023-02-28T01:10:11;97225.63;;;1.23;56.04
3150;BME280;32503;47.748;8.960;2023-02-28T01:12:38;97226.84;;;1.36;56.00
3150;BME280;32503;47.748;8.960;2023-02-28T01:15:06;97229.56;;;1.31;56.12
3150;BME280;32503;47.748;8.960;2023-02-28T01:17:34;97217.94;;;1.22;56.21
3150;BME280;32503;47.748;8.960;2023-02-28T01:20:01;97222.34;;;1.31;55.85
3150;BME280;32503;47.748;8.960;2023-02-28T01:22:28;97227.69;;;1.31;55.75
3150;BME280;32503;47.748;8.960;2023-02-28T01:24:57;97229.88;;;1.48;55.50
3150;BME280;32503;47.748;8.960;2023-02-28T01:27:24;97228.69;;;1.36;56.09
3150;BME280;32503;47.748;8.960;2023-02-28T01:29:52;97224.69;;;1.38;55.91
3150;BME280;32503;47.748;8.960;2023-02-28T01:32:19;97232.69;;;1.38;55.80
3150;BME280;32503;47.748;8.960;2023-02-28T01:34:46;97227.97;;;1.30;55.90
3150;BME280;32503;47.748;8.960;2023-02-28T01:37:13;97233.47;;;1.39;55.86
3150;BME280;32503;47.748;8.960;2023-02-28T01:39:40;97232.34;;;1.45;55.90
3150;BME280;32503;47.748;8.960;2023-02-28T01:42:10;97223.75;;;1.29;55.13
3150;BME280;32503;47.748;8.960;2023-02-28T01:45:01;97211.81;;;1.21;55.43
3150;BME280;32503;47.748;8.960;2023-02-28T01:47:32;97229.28;;;1.32;55.50
3150;BME280;32503;47.748;8.960;2023-02-28T01:50:05;97234.47;;;1.43;55.57
3150;BME280;32503;47.748;8.960;2023-02-28T01:52:34;97224.19;;;1.36;55.77
3150;BME280;32503;47.748;8.960;2023-02-28T01:55:03;97235.06;;;1.40;55.79
3150;BME280;32503;47.748;8.960;2023-02-28T01:57:37;97221.13;;;1.24;55.88
3150;BME280;32503;47.748;8.960;2023-02-28T02:00:08;97223.44;;;1.30;55.65
3150;BME280;32503;47.748;8.960;2023-02-28T02:02:39;97235.84;;;1.40;55.09
3150;BME280;32503;47.748;8.960;2023-02-28T02:05:11;97211.16;;;1.35;55.18
3150;BME280;32503;47.748;8.960;2023-02-28T02:07:42;97226.19;;;1.44;55.33
3150;BME280;32503;47.748;8.960;2023-02-28T02:10:14;97228.28;;;1.47;55.33
3150;BME280;32503;47.748;8.960;2023-02-28T02:16:00;97225.63;;;1.47;55.41
3150;BME280;32503;47.748;8.960;2023-02-28T02:18:36;97210.09;;;1.30;55.68
3150;BME280;32503;47.748;8.960;2023-02-28T02:25:19;97216.19;;;1.36;55.68
3150;BME280;32503;47.748;8.960;2023-02-28T02:28:44;97215.25;;;1.46;55.72
3150;BME280;32503;47.748;8.960;2023-02-28T02:31:41;97223.03;;;1.42;55.52
3150;BME280;32503;47.748;8.960;2023-02-28T02:34:41;97210.50;;;1.43;54.98
3150;BME280;32503;47.748;8.960;2023-02-28T02:37:17;97210.50;;;1.43;55.11
3150;BME280;32503;47.748;8.960;2023-02-28T02:39:53;97219.53;;;1.47;55.02
3150;BME280;32503;47.748;8.960;2023-02-28T02:42:36;97223.25;;;1.46;55.48
3150;BME280;32503;47.748;8.960;2023-02-28T02:45:09;97215.25;;;1.46;54.93
3150;BME280;32503;47.748;8.960;2023-02-28T02:47:39;97214.41;;;1.50;54.88
3150;BME280;32503;47.748;8.960;2023-02-28T02:50:15;97208.03;;;1.46;55.10
3150;BME280;32503;47.748;8.960;2023-02-28T02:52:49;97220.31;;;1.47;54.90
3150;BME280;32503;47.748;8.960;2023-02-28T02:55:19;97215.47;;;1.49;55.03
3150;BME280;32503;47.748;8.960;2023-02-28T02:57:50;97214.41;;;1.50;55.27
3150;BME280;32503;47.748;8.960;2023-02-28T03:00:22;97194.00;;;1.41;55.36
3150;BME280;32503;47.748;8.960;2023-02-28T03:02:52;97190.06;;;1.38;55.05
3150;BME280;32503;47.748;8.960;2023-02-28T03:05:26;97211.47;;;1.52;55.28
3150;BME280;32503;47.748;8.960;2023-02-28T03:07:53;97218.56;;;1.57;54.81
3150;BME280;32503;47.748;8.960;2023-02-28T03:10:35;97199.56;;;1.44;55.16
3150;BME280;32503;47.748;8.960;2023-02-28T03:17:16;97194.16;;;1.49;55.54
3150;BME280;32503;47.748;8.960;2023-02-28T03:20:04;97215.19;;;1.51;54.92
3150;BME280;32503;47.748;8.960;2023-02-28T03:22:51;97199.75;;;1.48;54.82
3150;BME280;32503;47.748;8.960;2023-02-28T03:25:27;97205.09;;;1.48;54.93
3150;BME280;32503;47.748;8.960;2023-02-28T03:28:05;97212.47;;;1.56;54.88
3150;BME280;32503;47.748;8.960;2023-02-28T03:30:41;97213.84;;;1.54;54.97
3150;BME280;32503;47.748;8.960;2023-02-28T03:33:15;97204.09;;;1.44;55.00
3150;BME280;32503;47.748;8.960;2023-02-28T03:35:49;97192.66;;;1.43;55.15
3150;BME280;32503;47.748;8.960;2023-02-28T03:38:26;97199.47;;;1.49;55.08
3150;BME280;32503;47.748;8.960;2023-02-28T03:41:00;97202.22;;;1.44;55.24
3150;BME280;32503;47.748;8.960;2023-02-28T03:43:34;97202.00;;;1.41;54.95
3150;BME280;32503;47.748;8.960;2023-02-28T03:46:09;97193.34;;;1.30;55.30
3150;BME280;32503;47.748;8.960;2023-02-28T03:48:40;97209.53;;;1.33;55.64
3150;BME280;32503;47.748;8.960;2023-02-28T03:51:13;97202.50;;;1.43;55.64
3150;BME280;32503;47.748;8.960;2023-02-28T03:53:47;97211.31;;;1.43;55.56
3150;BME280;32503;47.748;8.960;2023-02-28T03:56:20;97209.69;;;1.42;55.41
3150;BME280;32503;47.748;8.960;2023-02-28T03:58:53;97192.34;;;1.26;55.67
3150;BME280;32503;47.748;8.960;2023-02-28T04:01:25;97204.38;;;1.42;55.46
3150;BME280;32503;47.748;8.960;2023-02-28T04:03:54;97214.53;;;1.40;55.69
3150;BME280;32503;47.748;8.960;2023-02-28T04:06:23;97223.03;;;1.42;55.49
3150;BME280;32503;47.748;8.960;2023-02-28T04:08:52;97225.63;;;1.47;55.27
3150;BME280;32503;47.748;8.960;2023-02-28T04:11:24;97209.53;;;1.33;55.61
3150;BME280;32503;47.748;8.960;2023-02-28T04:13:52;97224.13;;;1.41;55.66
3150;BME280;32503;47.748;8.960;2023-02-28T04:16:19;97231.09;;;1.37;55.78
3150;BME280;32503;47.748;8.960;2023-02-28T04:18:46;97224.69;;;1.38;55.27
3150;BME280;32503;47.748;8.960;2023-02-28T04:21:13;97223.81;;;1.43;55.24
3150;BME280;32503;47.748;8.960;2023-02-28T04:23:40;97202.22;;;1.25;55.53
3150;BME280;32503;47.748;8.960;2023-02-28T04:26:09;97222.81;;;1.39;55.37
3150;BME280;32503;47.748;8.960;2023-02-28T04:28:37;97202.75;;;1.22;55.76
3150;BME280;32503;47.748;8.960;2023-02-28T04:31:05;97200.50;;;1.35;55.22
3150;BME280;32503;47.748;8.960;2023-02-28T04:33:32;97217.41;;;1.44;55.70
3150;BME280;32503;47.748;8.960;2023-02-28T04:36:02;97221.91;;;1.48;54.72
3150;BME280;32503;47.748;8.960;2023-02-28T04:38:31;97226.13;;;1.49;54.68
3150;BME280;32503;47.748;8.960;2023-02-28T04:40:59;97219.28;;;1.43;55.29
3150;BME280;32503;47.748;8.960;2023-02-28T04:43:28;97184.91;;;1.23;55.37
3150;BME280;32503;47.748;8.960;2023-02-28T04:45:57;97220.88;;;1.44;55.41
3150;BME280;32503;47.748;8.960;2023-02-28T04:48:26;97223.53;;;1.44;55.14
3150;BME280;32503;47.748;8.960;2023-02-28T04:50:54;97229.13;;;1.43;55.17
3150;BME280;32503;47.748;8.960;2023-02-28T04:53:21;97227.34;;;1.38;55.34
3150;BME280;32503;47.748;8.960;2023-02-28T04:55:48;97235.84;;;1.40;55.46
3150;BME280;32503;47.748;8.960;2023-02-28T04:58:15;97236.63;;;1.41;55.54
3150;BME280;32503;47.748;8.960;2023-02-28T05:00:44;97236.84;;;1.44;55.05
3150;BME280;32503;47.748;8.960;2023-02-28T05:03:11;97237.66;;;1.45;55.03
3150;BME280;32503;47.748;8.960;2023-02-28T05:05:38;97244.34;;;1.42;55.17
3150;BME280;32503;47.748;8.960;2023-02-28T05:08:05;97241.06;;;1.50;54.89
3150;BME280;32503;47.748;8.960;2023-02-28T05:10:32;97212.50;;;1.32;54.75
3150;BME280;32503;47.748;8.960;2023-02-28T05:12:59;97234.69;;;1.46;55.38
3150;BME280;32503;47.748;8.960;2023-02-28T05:15:26;97244.91;;;1.39;55.28
3150;BME280;32503;47.748;8.960;2023-02-28T05:17:55;97229.84;;;1.29;55.10
3150;BME280;32503;47.748;8.960;2023-02-28T05:20:22;97246.50;;;1.40;54.71
3150;BME280;32503;47.748;8.960;2023-02-28T05:22:49;97241.41;;;1.44;54.94
3150;BME280;32503;47.748;8.960;2023-02-28T05:25:20;97233.75;;;1.37;55.08
3150;BME280;32503;47.748;8.960;2023-02-28T05:27:48;97243.00;;;1.45;54.68
3150;BME280;32503;47.748;8.960;2023-02-28T05:30:16;97245.13;;;1.43;55.28
3150;BME280;32503;47.748;8.960;2023-02-28T05:32:43;97255.22;;;1.46;54.88
3150;BME280;32503;47.748;8.960;2023-02-28T05:35:12;97250.69;;;1.46;54.82
3150;BME280;32503;47.748;8.960;2023-02-28T05:37:39;97246.94;;;1.47;55.27
3150;BME280;32503;47.748;8.960;2023-02-28T05:40:08;97252.84;;;1.44;55.19
3150;BME280;32503;47.748;8.960;2023-02-28T05:42:36;97225.38;;;1.25;54.87
3150;BME280;32503;47.748;8.960;2023-02-28T05:45:03;97253.66;;;1.45;54.96
3150;BME280;32503;47.748;8.960;2023-02-28T05:47:31;97252.84;;;1.44;54.95
3150;BME280;32503;47.748;8.960;2023-02-28T05:49:58;97263.84;;;1.38;55.10
3150;BME280;32503;47.748;8.960;2023-02-28T05:52:27;97266.44;;;1.43;55.13
3150;BME280;32503;47.748;8.960;2023-02-28T05:54:55;97266.44;;;1.43;54.55
3150;BME280;32503;47.748;8.960;2023-02-28T05:57:23;97250.66;;;1.27;54.69
3150;BME280;32503;47.748;8.960;2023-02-28T05:59:50;97272.34;;;1.40;54.99
3150;BME280;32503;47.748;8.960;2023-02-28T06:02:18;97276.03;;;1.44;54.72
3150;BME280;32503;47.748;8.960;2023-02-28T06:04:45;97272.00;;;1.46;54.56
3150;BME280;32503;47.748;8.960;2023-02-28T06:07:12;97273.16;;;1.40;54.77
3150;BME280;32503;47.748;8.960;2023-02-28T06:09:41;97281.63;;;1.42;55.06
3150;BME280;32503;47.748;8.960;2023-02-28T06:12:09;97284.25;;;1.47;54.71
3150;BME280;32503;47.748;8.960;2023-02-28T06:14:36;97275.19;;;1.48;54.58
3150;BME280;32503;47.748;8.960;2023-02-28T06:17:04;97282.38;;;1.48;54.70
3150;BME280;32503;47.748;8.960;2023-02-28T06:19:31;97283.97;;;1.49;54.69
3150;BME280;32503;47.748;8.960;2023-02-28T06:21:58;97282.66;;;1.46;54.44
3150;BME280;32503;47.748;8.960;2023-02-28T06:24:26;97286.63;;;1.49;54.16
3150;BME280;32503;47.748;8.960;2023-02-28T06:26:56;97283.63;;;1.56;54.14
3150;BME280;32503;47.748;8.960;2023-02-28T06:29:24;97293.31;;;1.46;53.76
3150;BME280;32503;47.748;8.960;2023-02-28T06:31:51;97286.53;;;1.35;53.90
3150;BME280;32503;47.748;8.960;2023-02-28T06:34:19;97290.72;;;1.41;54.37
3150;BME280;32503;47.748;8.960;2023-02-28T06:36:46;97290.63;;;1.46;53.91
3150;BME280;32503;47.748;8.960;2023-02-28T06:39:13;97292.97;;;1.53;53.76
3150;BME280;32503;47.748;8.960;2023-02-28T06:41:40;97297.50;;;1.52;54.00
3150;BME280;32503;47.748;8.960;2023-02-28T06:44:14;97304.06;;;1.60;53.46
3150;BME280;32503;47.748;8.960;2023-02-28T06:46:42;97304.91;;;1.61;53.88
3150;BME280;32503;47.748;8.960;2023-02-28T06:49:10;97309.19;;;1.57;53.80
3150;BME280;32503;47.748;8.960;2023-02-28T06:51:40;97316.00;;;1.44;53.76
3150;BME280;32503;47.748;8.960;2023-02-28T06:54:08;97313.78;;;1.51;53.63
3150;BME280;32503;47.748;8.960;2023-02-28T06:56:36;97317.78;;;1.54;53.97
3150;BME280;32503;47.748;8.960;2023-02-28T06:59:03;97315.66;;;1.50;53.55
3150;BME280;32503;47.748;8.960;2023-02-28T07:01:32;97312.94;;;1.56;53.17
3150;BME280;32503;47.748;8.960;2023-02-28T07:04:00;97321.88;;;1.41;53.67
3150;BME280;32503;47.748;8.960;2023-02-28T07:06:28;97320.66;;;1.33;54.09
3150;BME280;32503;47.748;8.960;2023-02-28T07:08:55;97329.38;;;1.39;53.93
3150;BME280;32503;47.748;8.960;2023-02-28T07:11:24;97336.16;;;1.50;53.63
3150;BME280;32503;47.748;8.960;2023-02-28T07:13:52;97341.75;;;1.54;53.86
3150;BME280;32503;47.748;8.960;2023-02-28T07:16:19;97346.50;;;1.57;53.83
3150;BME280;32503;47.748;8.960;2023-02-28T07:18:47;97352.41;;;1.54;53.72
3150;BME280;32503;47.748;8.960;2023-02-28T07:21:15;97344.47;;;1.48;53.14
3150;BME280;32503;47.748;8.960;2023-02-28T07:23:42;97348.69;;;1.49;53.57
3150;BME280;32503;47.748;8.960;2023-02-28T07:26:13;97332.09;;;1.33;53.51
3150;BME280;32503;47.748;8.960;2023-02-28T07:28:41;97348.44;;;1.51;53.60
3150;BME280;32503;47.748;8.960;2023-02-28T07:31:10;97331.03;;;1.35;53.88
3150;BME280;32503;47.748;8.960;2023-02-28T07:33:37;97357.84;;;1.43;54.08
3150;BME280;32503;47.748;8.960;2023-02-28T07:36:09;97352.75;;;1.47;53.87
3150;BME280;32503;47.748;8.960;2023-02-28T07:38:39;97352.97;;;1.50;54.09
3150;BME280;32503;47.748;8.960;2023-02-28T07:41:06;97355.63;;;1.50;53.73
3150;BME280;32503;47.748;8.960;2023-02-28T07:43:34;97352.41;;;1.54;53.97
3150;BME280;32503;47.748;8.960;2023-02-28T07:46:03;97339.13;;;1.48;54.14
3150;BME280;32503;47.748;8.960;2023-02-28T07:48:31;97351.22;;;1.65;53.53
3150;BME280;32503;47.748;8.960;2023-02-28T07:50:59;97353.88;;;1.65;52.91
3150;BME280;32503;47.748;8.960;2023-02-28T07:53:29;97311.28;;;1.36;53.48
3150;BME280;32503;47.748;8.960;2023-02-28T07:55:57;97355.44;;;1.66;53.64
3150;BME280;32503;47.748;8.960;2023-02-28T07:58:24;97332.38;;;1.32;53.95
3150;BME280;32503;47.748;8.960;2023-02-28T08:00:52;97360.00;;;1.41;53.49
3150;BME280;32503;47.748;8.960;2023-02-28T08:03:21;97327.25;;;1.11;54.10
3150;BME280;32503;47.748;8.960;2023-02-28T08:05:49;97363.63;;;1.50;53.55
3150;BME280;32503;47.748;8.960;2023-02-28T08:08:18;97356.16;;;1.52;53.67
3150;BME280;32503;47.748;8.960;2023-02-28T08:10:46;97366.84;;;1.47;53.77
3150;BME280;32503;47.748;8.960;2023-02-28T08:13:13;97365.19;;;1.51;53.70
3150;BME280;32503;47.748;8.960;2023-02-28T08:15:41;97378.53;;;1.51;53.31
3150;BME280;32503;47.748;8.960;2023-02-28T08:18:09;97368.50;;;1.43;54.00
3150;BME280;32503;47.748;8.960;2023-02-28T08:20:36;97363.59;;;1.26;54.22
3150;BME280;32503;47.748;8.960;2023-02-28T08:23:03;97364.59;;;1.30;54.26
3150;BME280;32503;47.748;8.960;2023-02-28T08:25:30;97371.31;;;1.28;54.06
3150;BME280;32503;47.748;8.960;2023-02-28T08:27:59;97363.00;;;1.35;54.34
3150;BME280;32503;47.748;8.960;2023-02-28T08:30:26;97371.41;;;1.18;54.49
3150;BME280;32503;47.748;8.960;2023-02-28T08:32:53;97373.69;;;1.29;54.35
3150;BME280;32503;47.748;8.960;2023-02-28T08:35:21;97375.63;;;1.48;54.07
3150;BME280;32503;47.748;8.960;2023-02-28T08:37:48;97389.91;;;1.33;54.03
3150;BME280;32503;47.748;8.960;2023-02-28T08:40:16;97304.31;;;0.86;54.13
3150;BME280;32503;47.748;8.960;2023-02-28T08:42:44;97379.38;;;1.47;53.81
3150;BME280;32503;47.748;8.960;2023-02-28T08:45:13;97385.19;;;1.54;53.60
3150;BME280;32503;47.748;8.960;2023-02-28T08:47:41;97389.63;;;1.59;53.02
3150;BME280;32503;47.748;8.960;2023-02-28T08:50:09;97388.56;;;1.60;53.27
3150;BME280;32503;47.748;8.960;2023-02-28T08:52:37;97393.41;;;1.58;53.05
3150;BME280;32503;47.748;8.960;2023-02-28T08:55:05;97391.47;;;1.63;53.21
3150;BME280;32503;47.748;8.960;2023-02-28T08:57:32;97389.81;;;1.67;53.13
3150;BME280;32503;47.748;8.960;2023-02-28T08:59:59;97387.34;;;1.52;53.26
3150;BME280;32503;47.748;8.960;2023-02-28T09:02:31;97389.22;;;1.46;53.91
3150;BME280;32503;47.748;8.960;2023-02-28T09:04:58;97399.06;;;1.51;54.07
3150;BME280;32503;47.748;8.960;2023-02-28T09:07:25;97401.25;;;1.44;54.22
3150;BME280;32503;47.748;8.960;2023-02-28T09:09:52;97305.06;;;0.92;54.17
3150;BME280;32503;47.748;8.960;2023-02-28T09:12:24;97392.91;;;1.56;53.96
3150;BME280;32503;47.748;8.960;2023-02-28T09:14:52;97407.38;;;1.44;53.90
3150;BME280;32503;47.748;8.960;2023-02-28T09:17:20;97370.88;;;1.16;54.57
3150;BME280;32503;47.748;8.960;2023-02-28T09:19:50;97407.38;;;1.44;54.54
3150;BME280;32503;47.748;8.960;2023-02-28T09:22:17;97406.25;;;1.50;53.92
3150;BME280;32503;47.748;8.960;2023-02-28T09:24:44;97404.00;;;1.63;53.80
3150;BME280;32503;47.748;8.960;2023-02-28T09:27:11;97406.63;;;1.68;53.31
3150;BME280;32503;47.748;8.960;2023-02-28T09:29:38;97410.09;;;1.39;53.84
3150;BME280;32503;47.748;8.960;2023-02-28T09:32:05;97417.00;;;1.40;54.04
3150;BME280;32503;47.748;8.960;2023-02-28T09:34:32;97400.94;;;1.50;54.06
3150;BME280;32503;47.748;8.960;2023-02-28T09:37:01;97391.78;;;1.57;53.68
3150;BME280;32503;47.748;8.960;2023-02-28T09:39:28;97400.84;;;1.61;54.06
3150;BME280;32503;47.748;8.960;2023-02-28T09:41:56;97407.69;;;1.67;53.69
3150;BME280;32503;47.748;8.960;2023-02-28T09:44:28;97405.75;;;1.73;53.75
3150;BME280;32503;47.748;8.960;2023-02-28T09:47:00;97415.75;;;1.62;53.40
3150;BME280;32503;47.748;8.960;2023-02-28T09:49:37;97429.00;;;1.38;54.13
3150;BME280;32503;47.748;8.960;2023-02-28T09:52:12;97423.03;;;1.22;54.72
3150;BME280;32503;47.748;8.960;2023-02-28T09:54:41;97414.66;;;1.04;55.26
3150;BME280;32503;47.748;8.960;2023-02-28T09:57:17;97426.13;;;1.34;55.41
3150;BME280;32503;47.748;8.960;2023-02-28T09:59:59;97424.53;;;1.33;55.17
3150;BME280;32503;47.748;8.960;2023-02-28T10:03:00;97406.38;;;1.06;55.27
3150;BME280;32503;47.748;8.960;2023-02-28T10:05:35;97423.91;;;1.12;55.71
3150;BME280;32503;47.748;8.960;2023-02-28T10:08:13;97431.13;;;1.11;55.94
3150;BME280;32503;47.748;8.960;2023-02-28T10:10:43;97399.50;;;1.00;55.84
3150;BME280;32503;47.748;8.960;2023-02-28T10:13:20;97427.44;;;1.37;55.17
3150;BME280;32503;47.748;8.960;2023-02-28T10:15:54;97432.78;;;1.37;55.15
3150;BME280;32503;47.748;8.960;2023-02-28T10:18:25;97435.63;;;1.45;55.00
3150;BME280;32503;47.748;8.960;2023-02-28T10:20:55;97441.41;;;1.52;55.03
3150;BME280;32503;47.748;8.960;2023-02-28T10:23:28;97439.16;;;1.65;54.64
3150;BME280;32503;47.748;8.960;2023-02-28T10:26:00;97438.25;;;1.50;54.56
3150;BME280;32503;47.748;8.960;2023-02-28T10:28:32;97448.28;;;1.59;54.69
3150;BME280;32503;47.748;8.960;2023-02-28T10:30:59;97455.22;;;1.60;54.95
3150;BME280;32503;47.748;8.960;2023-02-28T10:33:30;97444.22;;;1.37;55.13
3150;BME280;32503;47.748;8.960;2023-02-28T10:36:01;97409.09;;;1.01;54.65
3150;BME280;32503;47.748;8.960;2023-02-28T10:38:34;97451.38;;;1.42;55.15
3150;BME280;32503;47.748;8.960;2023-02-28T10:41:07;97415.63;;;1.19;55.49
3150;BME280;32503;47.748;8.960;2023-02-28T10:43:35;97442.44;;;1.57;55.06
3150;BME280;32503;47.748;8.960;2023-02-28T10:46:09;97448.47;;;1.67;54.62
3150;BME280;32503;47.748;8.960;2023-02-28T10:48:42;97442.69;;;1.84;54.23
3150;BME280;32503;47.748;8.960;2023-02-28T10:51:12;97434.66;;;1.89;53.98
3150;BME280;32503;47.748;8.960;2023-02-28T10:53:48;97450.72;;;2.08;54.01
3150;BME280;32503;47.748;8.960;2023-02-28T10:56:17;97450.88;;;1.93;53.63
3150;BME280;32503;47.748;8.960;2023-02-28T10:58:54;97455.16;;;1.65;54.35
3150;BME280;32503;47.748;8.960;2023-02-28T11:01:24;97442.38;;;1.62;54.32
3150;BME280;32503;47.748;8.960;2023-02-28T11:03:52;97459.56;;;1.50;54.76
3150;BME280;32503;47.748;8.960;2023-02-28T11:06:22;97446.41;;;1.30;55.34
3150;BME280;32503;47.748;8.960;2023-02-28T11:08:55;97436.41;;;1.46;55.44
3150;BME280;32503;47.748;8.960;2023-02-28T11:11:26;97453.19;;;1.76;55.13
3150;BME280;32503;47.748;8.960;2023-02-28T11:13:55;97450.47;;;1.81;54.51
3150;BME280;32503;47.748;8.960;2023-02-28T11:16:32;97461.22;;;2.00;54.36
3150;BME280;32503;47.748;8.960;2023-02-28T11:18:59;97442.78;;;2.03;53.72
3150;BME280;32503;47.748;8.960;2023-02-28T11:21:29;97457.34;;;2.11;53.98
3150;BME280;32503;47.748;8.960;2023-02-28T11:24:02;97450.94;;;2.12;53.93
3150;BME280;32503;47.748;8.960;2023-02-28T11:26:40;97440.88;;;2.04;53.68
3150;BME280;32503;47.748;8.960;2023-02-28T11:29:18;97443.59;;;1.75;54.65
3150;BME280;32503;47.748;8.960;2023-02-28T11:32:13;97409.69;;;1.80;54.76
3150;BME280;32503;47.748;8.960;2023-02-28T11:34:43;97438.72;;;2.06;54.21
3150;BME280;32503;47.748;8.960;2023-02-28T11:37:14;97401.38;;;2.06;53.80
3150;BME280;32503;47.748;8.960;2023-02-28T11:39:44;97422.31;;;2.42;53.25
3150;BME280;32503;47.748;8.960;2023-02-28T11:42:25;97427.34;;;2.62;53.03
3150;BME280;32503;47.748;8.960;2023-02-28T11:45:14;97415.28;;;2.46;52.74
3150;BME280;32503;47.748;8.960;2023-02-28T11:47:48;97442.69;;;3.74;74.61
3150;BME280;32503;47.748;8.960;2023-02-28T11:50:40;97439.41;;;3.77;nan
3150;BME280;32503;47.748;8.960;2023-02-28T11:53:21;97440.44;;;3.49;52.76
3150;BME280;32503;47.748;8.960;2023-02-28T11:55:54;97433.81;;;3.46;51.41
3150;BME280;32503;47.748;8.960;2023-02-28T11:58:36;97437.47;;;3.17;51.87
3150;BME280;32503;47.748;8.960;2023-02-28T12:01:21;97440.19;;;3.31;64.01
3150;BME280;32503;47.748;8.960;2023-02-28T12:04:03;97434.22;;;3.20;52.23
3150;BME280;32503;47.748;8.960;2023-02-28T12:06:40;97425.81;;;2.94;52.24
3150;BME280;32503;47.748;8.960;2023-02-28T12:12:28;97428.91;;;3.01;52.28
3150;BME280;32503;47.748;8.960;2023-02-28T12:15:28;97435.16;;;2.97;52.54
3150;BME280;32503;47.748;8.960;2023-02-28T12:18:21;97427.41;;;3.14;52.11
3150;BME280;32503;47.748;8.960;2023-02-28T12:20:57;97432.91;;;2.85;52.50
3150;BME280;32503;47.748;8.960;2023-02-28T12:23:52;97423.09;;;2.61;52.91
3150;BME280;32503;47.748;8.960;2023-02-28T12:26:32;97427.13;;;2.59;52.86
3150;BME280;32503;47.748;8.960;2023-02-28T12:29:13;97432.19;;;2.60;53.38
3150;BME280;32503;47.748;8.960;2023-02-28T12:31:47;97434.44;;;2.72;53.11
3150;BME280;32503;47.748;8.960;2023-02-28T12:34:20;97409.47;;;2.44;53.64
3150;BME280;32503;47.748;8.960;2023-02-28T12:36:52;97422.16;;;2.71;53.32
3150;BME280;32503;47.748;8.960;2023-02-28T12:39:25;97416.31;;;2.88;53.14
3150;BME280;32503;47.748;8.960;2023-02-28T12:41:56;97415.13;;;2.94;52.89
3150;BME280;32503;47.748;8.960;2023-02-28T12:44:33;97420.47;;;2.94;52.95
3150;BME280;32503;47.748;8.960;2023-02-28T12:47:05;97426.41;;;2.91;53.15
3150;BME280;32503;47.748;8.960;2023-02-28T12:49:42;97387.72;;;2.89;52.40
3150;BME280;32503;47.748;8.960;2023-02-28T12:52:14;97406.72;;;3.20;52.18
3150;BME280;32503;47.748;8.960;2023-02-28T12:54:49;97415.16;;;3.27;51.87
3150;BME280;32503;47.748;8.960;2023-02-28T12:57:25;97409.72;;;3.32;51.51
3150;BME280;32503;47.748;8.960;2023-02-28T12:59:59;97415.50;;;3.39;51.59
3150;BME280;32503;47.748;8.960;2023-02-28T13:02:57;97414.91;;;3.42;51.50
3150;BME280;32503;47.748;8.960;2023-02-28T13:05:50;97413.72;;;3.49;51.29
3150;BME280;32503;47.748;8.960;2023-02-28T13:08:41;97418.41;;;3.57;51.01
3150;BME280;32503;47.748;8.960;2023-02-28T13:11:25;97413.13;;;3.52;51.17
3150;BME280;32503;47.748;8.960;2023-02-28T13:14:00;97421.06;;;3.57;50.94
3150;BME280;32503;47.748;8.960;2023-02-28T13:17:03;97402.72;;;3.50;51.24
3150;BME280;32503;47.748;8.960;2023-02-28T13:19:39;97418.09;;;3.58;50.95
3150;BME280;32503;47.748;8.960;2023-02-28T13:22:19;97413.72;;;3.49;50.98
3150;BME280;32503;47.748;8.960;2023-02-28T13:24:49;97425.03;;;3.59;50.79
3150;BME280;32503;47.748;8.960;2023-02-28T13:27:36;97423.66;;;3.62;50.79
3150;BME280;32503;47.748;8.960;2023-02-28T13:33:31;97433.41;;;3.53;50.85
3150;BME280;32503;47.748;8.960;2023-02-28T13:36:24;97432.75;;;3.61;50.30
3150;BME280;32503;47.748;8.960;2023-02-28T13:38:53;97431.19;;;3.60;50.26
3150;BME280;32503;47.748;8.960;2023-02-28T13:41:48;97428.50;;;3.60;50.83
3150;BME280;32503;47.748;8.960;2023-02-28T13:44:20;97413.13;;;3.52;50.78
3150;BME280;32503;47.748;8.960;2023-02-28T13:47:27;97428.19;;;3.61;50.92
3150;BME280;32503;47.748;8.960;2023-02-28T13:50:15;97428.72;;;3.31;51.57
3150;BME280;32503;47.748;8.960;2023-02-28T13:52:56;97439.94;;;3.14;51.31
3150;BME280;32503;47.748;8.960;2023-02-28T13:55:31;97430.34;;;3.13;51.98
3150;BME280;32503;47.748;8.960;2023-02-28T13:58:32;97426.31;;;2.96;52.44
3150;BME280;32503;47.748;8.960;2023-02-28T14:01:25;97436.00;;;3.11;52.22
3150;BME280;32503;47.748;8.960;2023-02-28T14:04:49;97435.22;;;3.11;51.62
3150;BME280;32503;47.748;8.960;2023-02-28T14:07:25;97431.44;;;3.12;51.79